• Join FlightAware (Why Join?)
  • Login
  • US Flag 
02:27AM EDT


 

Airport Tracker/Info


-or-


 

Live Flight TrackerFlight Track Log ✈ PDT4143 ✈ 01-Sep-2013 ✈ KROA - KCLT

Flight Track Log - Related Links

Times and Time Zones

All times are in EDT time to prevent confusion due to time zone crossing. See the PDT4143 flight status page for this flight to view local times or setup timezone preferences in your user account.

Time Position Orientation Groundspeed Altitude Reporting Facility
EDT Latitude Longitude Course Direction KTS MPH feet Rate Location/Type
12:59PM 37.0101 -80.0333 180° South  Level FlightAware Approximate
01:00PM 36.9472 -80.0318 176° South  Level FlightAware Approximate
01:01PM 36.8843 -80.0270 176° South  Level FlightAware Approximate
01:02PM 36.8214 -80.0221 176° South  Level FlightAware Approximate
01:03PM 36.7584 -80.0173 176° South  Level FlightAware Approximate
01:04PM 36.6955 -80.0153 177° South  Level FlightAware Approximate
01:05PM 36.6325 -80.0114 177° South  Level FlightAware Approximate
01:06PM 36.5696 -80.0075 177° South  Level FlightAware Approximate
01:07PM 36.5066 -80.0035 177° South  Level FlightAware Approximate
01:08PM 36.4437 -79.9992 174° South  Level FlightAware Approximate
01:09PM 36.3810 -79.9914 174° South  Level FlightAware Approximate
01:10PM 36.3183 -79.9835 174° South  Level FlightAware Approximate
01:11PM 36.2554 -79.9797 177° South  Level FlightAware Approximate
01:12PM 36.1924 -79.9760 177° South  Level FlightAware Approximate
01:13PM 36.1295 -79.9723 177° South  Level FlightAware Approximate
01:14PM 36.0665 -79.9686 177° South  Level FlightAware Approximate
01:15PM 36.0141 -79.9948 230° Southwest  Level FlightAware Approximate
01:16PM 35.9733 -80.0542 230° Southwest  Level FlightAware Approximate
01:16PM 36.0592 -80.3478 227° Southwest 258 297 6,400  Level Atlanta Center
01:17PM 35.9325 -80.1135 230° Southwest  Level FlightAware Approximate
01:17PM 36.0136 -80.3653 197° South 254 292 6,000  Level Atlanta Center
01:18PM 35.8917 -80.1728 230° Southwest  Level FlightAware Approximate
01:18PM 35.9500 -80.3964 202° Southwest 244 281 6,000  Level Atlanta Center
01:19PM 35.8509 -80.2320 230° Southwest  Level FlightAware Approximate
01:19PM 35.8903 -80.4247 201° Southwest 237 273 6,000  Level Atlanta Center
01:20PM 35.8067 -80.2875 225° Southwest  Level FlightAware Approximate
01:20PM 35.8244 -80.4558 201° Southwest 234 269 6,000  Level Atlanta Center
01:21PM 35.7632 -80.3436 227° Southwest  Level FlightAware Approximate
01:21PM 35.7953 -80.5261 243° Southwest 229 264 6,000  Level Atlanta Center
01:22PM 35.7553 -80.5867 231° Southwest 231 266 6,000  Level Atlanta Center
01:23PM 35.7131 -80.6500 231° Southwest 232 267 6,000  Level Atlanta Center
01:24PM 35.6714 -80.7181 233° Southwest 231 266 6,000 -120 Level Atlanta Center
01:25PM 35.6631 -80.7978 263° West 236 272 5,800 -600 Descending Atlanta Center
01:26PM 35.6586 -80.8744 266° West 227 261 4,800 -900 Descending Atlanta Center
01:27PM 35.6583 -80.9411 270° West 186 214 4,000 -420 Descending Atlanta Center
01:28PM 35.6217 -80.9731 215° Southwest 170 196 4,000  Level Atlanta Center
01:29PM 35.5714 -80.9725 179° South 181 208 4,000  Level Atlanta Center
01:30PM 35.5192 -80.9642 173° South 187 215 4,000  Level Atlanta Center
01:31PM 35.4689 -80.9583 175° South 180 207 4,000  Level Atlanta Center
01:32PM 35.4189 -80.9578 179° South 167 192 4,000 -300 Level Atlanta Center
01:33PM 35.3769 -80.9542 176° South 154 177 3,500 -660 Descending Atlanta Center
01:34PM 35.3331 -80.9456 171° South 161 185 2,700 -840 Descending Atlanta Center
01:35PM 35.2892 -80.9447 179° South 161 185 1,900 -780 Descending Atlanta Center
01:36PM 35.2472 -80.9411 176° South 133 153 1,200 -720 Descending Atlanta Center